Aeroporto :
LOGIN :

Iscrizione | Disclaimer

   EN    FR    IT 

 










Sommario :    VFR   VFR Marginale   IFR   IFR Intensivo   IFR Molto Intensivo
Visibilità : 
Base nubi : 
>= 8 km
>= 3000ft
5 / 8 km
1000 / 3000 ft
1500m / 5 km
500 / 1000 ft
800 / 1500m
200 / 500 ft
< 800m
< 200 ft
Simboli :   Temporali  Nebbia  Neve Forte  Precipitazioni Forti  Vento > 20 kt
SIGMETs :   Varie  Temporali  Ghiacco  Turbolenza  Onda orograficha  Ceneri Vulcaniche






- Altitudine del aeroporto : 72 ft
- Codice IATA : UDE


EHVK - Volkel Airbase

ULTIMO METAR :
  • 230204Z AUTO 24013KT 9000 -RADZ FEW017 SCT022 BKN030 09/07 Q1019 WHT

METARs OBSOLETI :
  • 230155Z AUTO 24011KT 9000 -RA FEW015CB SCT017 BKN028 09/07 Q1019 RERA REDZ WHT
  • 230125Z AUTO 24012KT 9999 -RA SCT018 BKN022 OVC025 10/07 Q1020 WHT
  • 230055Z AUTO 24013KT 9999 SCT017 BKN020 OVC025 10/07 Q1020 WHT
  • 230025Z AUTO 24013KT 9999 FEW016 BKN019 BKN022 10/07 Q1020 WHT
  • 222355Z AUTO 25013KT 220V280 9999 FEW014 BKN017 BKN020 10/08 Q1020 WHT
  • 222326Z AUTO 24015KT 9000 BR FEW014 BKN016 BKN022 10/08 Q1020 WHT
  • 222303Z AUTO 24013KT 9999 FEW010 BKN015 OVC019 10/08 Q1020 WHT

TAF TAF EHVK
Valido dal 23 a 02 ore il 23 a 14 ore UTC


230046Z 2302/2314 24012KT 9999 BKN020 OVC040
BECMG 2303/2305 4000 RA BKN015 OVC020
TEMPO 2305/2313 3000 RA SCT010 OVC015
BECMG 2306/2308 20010KT
BECMG 2308/2310 24020G35KT
PROB40
TEMPO 2308/2312 1500 +RA SCT004 OVC007
PROB30
TEMPO 2309/2315 25025G42KT
BECMG 2312/2314 9999 NSW SCT020 BKN035
TEMPO 2314/2315 3500 RA SHRA SCT010 BKN015 SCT020CB



MetMap, La meteo Aeronautica in un colpo d'occhio ! - Copyright ORBIFLY Dicembre 2007 - Disclaimer

ORBIFLY MET'MAP TEAM :

Programmazione e sviluppo : Alexandra Zaïnal
Concezione : Baudouin d'Aumeries
Aiuto per la programmazione : Marc-Olivier Méhu
Supporto tecnico e logistico : Manuel Goepfert
Aiuto per la traduzione : Arnaldo La Scala

Contatto : metmap@orbifly.com




FONTI E CREDITI :

   NOAA